sensor_id;sensor_type;location;lat;lon;timestamp;P1;durP1;ratioP1;P2;durP2;ratioP2
78410;SDS011;67706;51.074;-1.796;2023-08-07T00:01:16;6.80;;;2.08;;
78410;SDS011;67706;51.074;-1.796;2023-08-07T00:03:44;7.03;;;2.00;;
78410;SDS011;67706;51.074;-1.796;2023-08-07T00:06:10;4.25;;;1.73;;
78410;SDS011;67706;51.074;-1.796;2023-08-07T00:08:37;5.65;;;2.03;;
78410;SDS011;67706;51.074;-1.796;2023-08-07T00:11:04;8.63;;;1.90;;
78410;SDS011;67706;51.074;-1.796;2023-08-07T00:13:31;8.65;;;2.17;;
78410;SDS011;67706;51.074;-1.796;2023-08-07T00:15:58;6.70;;;2.13;;
78410;SDS011;67706;51.074;-1.796;2023-08-07T00:18:25;5.05;;;1.80;;
78410;SDS011;67706;51.074;-1.796;2023-08-07T00:20:53;8.40;;;1.80;;
78410;SDS011;67706;51.074;-1.796;2023-08-07T00:23:19;8.85;;;2.20;;
78410;SDS011;67706;51.074;-1.796;2023-08-07T00:25:46;3.75;;;1.75;;
78410;SDS011;67706;51.074;-1.796;2023-08-07T00:28:13;3.67;;;2.00;;
78410;SDS011;67706;51.074;-1.796;2023-08-07T00:30:39;8.80;;;2.00;;
78410;SDS011;67706;51.074;-1.796;2023-08-07T00:33:06;5.82;;;1.73;;
78410;SDS011;67706;51.074;-1.796;2023-08-07T00:35:33;4.90;;;1.58;;
78410;SDS011;67706;51.074;-1.796;2023-08-07T00:38:01;6.63;;;1.58;;
78410;SDS011;67706;51.074;-1.796;2023-08-07T00:40:28;3.17;;;1.85;;
78410;SDS011;67706;51.074;-1.796;2023-08-07T00:43:01;7.78;;;1.73;;
78410;SDS011;67706;51.074;-1.796;2023-08-07T00:45:28;3.95;;;1.80;;
78410;SDS011;67706;51.074;-1.796;2023-08-07T00:47:55;6.18;;;2.03;;
78410;SDS011;67706;51.074;-1.796;2023-08-07T00:50:22;9.07;;;2.53;;
78410;SDS011;67706;51.074;-1.796;2023-08-07T00:52:48;6.20;;;1.95;;
78410;SDS011;67706;51.074;-1.796;2023-08-07T00:55:16;5.40;;;1.80;;
78410;SDS011;67706;51.074;-1.796;2023-08-07T00:57:43;8.38;;;2.40;;
78410;SDS011;67706;51.074;-1.796;2023-08-07T01:00:11;5.80;;;1.75;;
78410;SDS011;67706;51.074;-1.796;2023-08-07T01:02:39;6.72;;;2.40;;
78410;SDS011;67706;51.074;-1.796;2023-08-07T01:05:06;5.72;;;1.90;;
78410;SDS011;67706;51.074;-1.796;2023-08-07T01:07:33;4.88;;;1.50;;
78410;SDS011;67706;51.074;-1.796;2023-08-07T01:10:00;5.35;;;1.85;;
78410;SDS011;67706;51.074;-1.796;2023-08-07T01:12:30;5.03;;;2.00;;
78410;SDS011;67706;51.074;-1.796;2023-08-07T01:15:02;4.38;;;1.60;;
78410;SDS011;67706;51.074;-1.796;2023-08-07T01:17:35;3.35;;;1.85;;
78410;SDS011;67706;51.074;-1.796;2023-08-07T01:20:02;5.78;;;1.60;;
78410;SDS011;67706;51.074;-1.796;2023-08-07T01:22:31;3.85;;;1.55;;
78410;SDS011;67706;51.074;-1.796;2023-08-07T01:24:57;7.00;;;2.00;;
78410;SDS011;67706;51.074;-1.796;2023-08-07T01:27:29;5.63;;;2.03;;
78410;SDS011;67706;51.074;-1.796;2023-08-07T01:30:02;3.78;;;1.95;;
78410;SDS011;67706;51.074;-1.796;2023-08-07T01:32:43;6.00;;;2.30;;
78410;SDS011;67706;51.074;-1.796;2023-08-07T01:35:16;5.28;;;1.80;;
78410;SDS011;67706;51.074;-1.796;2023-08-07T01:37:48;4.55;;;1.80;;
78410;SDS011;67706;51.074;-1.796;2023-08-07T01:40:16;6.88;;;1.60;;
78410;SDS011;67706;51.074;-1.796;2023-08-07T01:42:43;2.60;;;1.50;;
78410;SDS011;67706;51.074;-1.796;2023-08-07T01:45:12;7.70;;;1.80;;
78410;SDS011;67706;51.074;-1.796;2023-08-07T01:47:39;3.55;;;1.80;;
78410;SDS011;67706;51.074;-1.796;2023-08-07T01:50:06;5.03;;;1.90;;
78410;SDS011;67706;51.074;-1.796;2023-08-07T01:52:33;3.88;;;2.17;;
78410;SDS011;67706;51.074;-1.796;2023-08-07T01:55:01;5.25;;;2.10;;
78410;SDS011;67706;51.074;-1.796;2023-08-07T01:57:27;3.35;;;1.63;;
78410;SDS011;67706;51.074;-1.796;2023-08-07T01:59:55;5.00;;;1.85;;
78410;SDS011;67706;51.074;-1.796;2023-08-07T02:02:22;7.40;;;1.98;;
78410;SDS011;67706;51.074;-1.796;2023-08-07T02:04:49;4.32;;;1.73;;
78410;SDS011;67706;51.074;-1.796;2023-08-07T02:07:15;5.55;;;2.17;;
78410;SDS011;67706;51.074;-1.796;2023-08-07T02:09:42;5.00;;;2.03;;
78410;SDS011;67706;51.074;-1.796;2023-08-07T02:12:10;5.95;;;1.85;;
78410;SDS011;67706;51.074;-1.796;2023-08-07T02:14:37;7.10;;;2.28;;
78410;SDS011;67706;51.074;-1.796;2023-08-07T02:17:04;5.13;;;2.05;;
78410;SDS011;67706;51.074;-1.796;2023-08-07T02:19:31;4.65;;;1.75;;
78410;SDS011;67706;51.074;-1.796;2023-08-07T02:21:57;3.50;;;1.70;;
78410;SDS011;67706;51.074;-1.796;2023-08-07T02:24:24;9.85;;;1.70;;
78410;SDS011;67706;51.074;-1.796;2023-08-07T02:26:51;2.80;;;1.83;;
78410;SDS011;67706;51.074;-1.796;2023-08-07T02:29:19;4.95;;;1.80;;
78410;SDS011;67706;51.074;-1.796;2023-08-07T02:31:45;7.97;;;2.33;;
78410;SDS011;67706;51.074;-1.796;2023-08-07T02:34:12;6.72;;;1.98;;
78410;SDS011;67706;51.074;-1.796;2023-08-07T02:36:39;5.10;;;1.50;;
78410;SDS011;67706;51.074;-1.796;2023-08-07T02:39:06;5.45;;;1.40;;
78410;SDS011;67706;51.074;-1.796;2023-08-07T02:41:33;4.57;;;1.90;;
78410;SDS011;67706;51.074;-1.796;2023-08-07T02:43:59;3.80;;;1.40;;
78410;SDS011;67706;51.074;-1.796;2023-08-07T02:46:27;5.78;;;1.88;;
78410;SDS011;67706;51.074;-1.796;2023-08-07T02:48:54;3.40;;;1.67;;
78410;SDS011;67706;51.074;-1.796;2023-08-07T02:51:21;4.75;;;1.90;;
78410;SDS011;67706;51.074;-1.796;2023-08-07T02:53:47;3.75;;;1.42;;
78410;SDS011;67706;51.074;-1.796;2023-08-07T02:56:14;5.20;;;1.73;;
78410;SDS011;67706;51.074;-1.796;2023-08-07T02:58:41;3.60;;;1.80;;
78410;SDS011;67706;51.074;-1.796;2023-08-07T03:01:08;5.28;;;1.92;;
78410;SDS011;67706;51.074;-1.796;2023-08-07T03:03:38;4.63;;;1.77;;
78410;SDS011;67706;51.074;-1.796;2023-08-07T03:06:04;5.03;;;1.70;;
78410;SDS011;67706;51.074;-1.796;2023-08-07T03:08:31;6.50;;;1.75;;
78410;SDS011;67706;51.074;-1.796;2023-08-07T03:10:58;6.03;;;1.65;;
78410;SDS011;67706;51.074;-1.796;2023-08-07T03:13:25;4.20;;;2.00;;
78410;SDS011;67706;51.074;-1.796;2023-08-07T03:15:58;5.75;;;2.05;;
78410;SDS011;67706;51.074;-1.796;2023-08-07T03:18:25;3.40;;;1.77;;
78410;SDS011;67706;51.074;-1.796;2023-08-07T03:20:53;5.35;;;1.77;;
78410;SDS011;67706;51.074;-1.796;2023-08-07T03:23:21;4.93;;;2.00;;
78410;SDS011;67706;51.074;-1.796;2023-08-07T03:25:48;9.05;;;2.05;;
78410;SDS011;67706;51.074;-1.796;2023-08-07T03:28:15;4.45;;;1.67;;
78410;SDS011;67706;51.074;-1.796;2023-08-07T03:30:41;3.10;;;1.67;;
78410;SDS011;67706;51.074;-1.796;2023-08-07T03:33:09;7.00;;;1.73;;
78410;SDS011;67706;51.074;-1.796;2023-08-07T03:35:36;3.92;;;1.70;;
78410;SDS011;67706;51.074;-1.796;2023-08-07T03:38:04;5.03;;;1.83;;
78410;SDS011;67706;51.074;-1.796;2023-08-07T03:40:32;8.95;;;2.03;;
78410;SDS011;67706;51.074;-1.796;2023-08-07T03:42:59;2.63;;;1.30;;
78410;SDS011;67706;51.074;-1.796;2023-08-07T03:45:25;6.18;;;2.22;;
78410;SDS011;67706;51.074;-1.796;2023-08-07T03:47:52;8.68;;;2.63;;
78410;SDS011;67706;51.074;-1.796;2023-08-07T03:50:19;6.65;;;2.53;;
78410;SDS011;67706;51.074;-1.796;2023-08-07T03:52:45;7.32;;;3.22;;
78410;SDS011;67706;51.074;-1.796;2023-08-07T03:55:14;9.88;;;3.67;;
78410;SDS011;67706;51.074;-1.796;2023-08-07T03:57:40;8.88;;;3.45;;
78410;SDS011;67706;51.074;-1.796;2023-08-07T04:00:07;12.60;;;4.15;;
78410;SDS011;67706;51.074;-1.796;2023-08-07T04:02:35;13.95;;;4.03;;
78410;SDS011;67706;51.074;-1.796;2023-08-07T04:05:01;9.50;;;3.92;;
78410;SDS011;67706;51.074;-1.796;2023-08-07T04:07:28;9.43;;;3.55;;
78410;SDS011;67706;51.074;-1.796;2023-08-07T04:09:55;12.25;;;4.30;;
78410;SDS011;67706;51.074;-1.796;2023-08-07T04:12:23;14.82;;;4.53;;
78410;SDS011;67706;51.074;-1.796;2023-08-07T04:14:50;14.98;;;4.43;;
78410;SDS011;67706;51.074;-1.796;2023-08-07T04:17:17;14.52;;;4.80;;
78410;SDS011;67706;51.074;-1.796;2023-08-07T04:19:44;13.15;;;4.13;;
78410;SDS011;67706;51.074;-1.796;2023-08-07T04:22:10;11.15;;;4.03;;
78410;SDS011;67706;51.074;-1.796;2023-08-07T04:24:37;15.05;;;4.90;;
78410;SDS011;67706;51.074;-1.796;2023-08-07T04:27:04;15.70;;;4.57;;
78410;SDS011;67706;51.074;-1.796;2023-08-07T04:29:32;15.60;;;4.13;;
78410;SDS011;67706;51.074;-1.796;2023-08-07T04:32:00;15.38;;;4.82;;
78410;SDS011;67706;51.074;-1.796;2023-08-07T04:34:26;14.07;;;4.90;;
78410;SDS011;67706;51.074;-1.796;2023-08-07T04:36:53;13.00;;;5.32;;
78410;SDS011;67706;51.074;-1.796;2023-08-07T04:39:21;12.75;;;4.55;;
78410;SDS011;67706;51.074;-1.796;2023-08-07T04:41:48;12.52;;;4.50;;
78410;SDS011;67706;51.074;-1.796;2023-08-07T04:44:15;11.63;;;3.78;;
78410;SDS011;67706;51.074;-1.796;2023-08-07T04:46:43;10.80;;;4.72;;
78410;SDS011;67706;51.074;-1.796;2023-08-07T04:49:10;11.93;;;4.53;;
78410;SDS011;67706;51.074;-1.796;2023-08-07T04:51:37;10.70;;;4.47;;
78410;SDS011;67706;51.074;-1.796;2023-08-07T04:54:04;14.73;;;5.80;;
78410;SDS011;67706;51.074;-1.796;2023-08-07T04:56:30;11.05;;;4.38;;
78410;SDS011;67706;51.074;-1.796;2023-08-07T04:58:57;15.20;;;4.65;;
78410;SDS011;67706;51.074;-1.796;2023-08-07T05:01:24;11.27;;;4.78;;
78410;SDS011;67706;51.074;-1.796;2023-08-07T05:03:52;12.60;;;4.70;;
78410;SDS011;67706;51.074;-1.796;2023-08-07T05:06:18;12.82;;;4.72;;
78410;SDS011;67706;51.074;-1.796;2023-08-07T05:08:45;11.75;;;4.55;;
78410;SDS011;67706;51.074;-1.796;2023-08-07T05:11:12;10.15;;;4.03;;
78410;SDS011;67706;51.074;-1.796;2023-08-07T05:13:38;14.13;;;4.78;;
78410;SDS011;67706;51.074;-1.796;2023-08-07T05:16:05;13.10;;;4.75;;
78410;SDS011;67706;51.074;-1.796;2023-08-07T05:18:32;13.48;;;4.97;;
78410;SDS011;67706;51.074;-1.796;2023-08-07T05:21:00;14.13;;;5.22;;
78410;SDS011;67706;51.074;-1.796;2023-08-07T05:23:27;8.35;;;4.10;;
78410;SDS011;67706;51.074;-1.796;2023-08-07T05:25:53;19.98;;;7.57;;
78410;SDS011;67706;51.074;-1.796;2023-08-07T05:28:20;15.52;;;5.45;;
78410;SDS011;67706;51.074;-1.796;2023-08-07T05:30:47;11.57;;;4.60;;
78410;SDS011;67706;51.074;-1.796;2023-08-07T05:33:13;13.15;;;4.70;;
78410;SDS011;67706;51.074;-1.796;2023-08-07T05:35:40;14.30;;;5.20;;
78410;SDS011;67706;51.074;-1.796;2023-08-07T05:38:08;16.88;;;5.40;;
78410;SDS011;67706;51.074;-1.796;2023-08-07T05:40:35;12.35;;;5.05;;
78410;SDS011;67706;51.074;-1.796;2023-08-07T05:43:02;11.05;;;4.38;;
78410;SDS011;67706;51.074;-1.796;2023-08-07T05:45:29;11.48;;;4.82;;
78410;SDS011;67706;51.074;-1.796;2023-08-07T05:47:55;12.20;;;4.40;;
78410;SDS011;67706;51.074;-1.796;2023-08-07T05:50:22;13.32;;;4.93;;
78410;SDS011;67706;51.074;-1.796;2023-08-07T05:52:49;11.07;;;4.47;;
78410;SDS011;67706;51.074;-1.796;2023-08-07T05:55:17;13.98;;;5.30;;
78410;SDS011;67706;51.074;-1.796;2023-08-07T05:57:43;13.15;;;5.63;;
78410;SDS011;67706;51.074;-1.796;2023-08-07T06:00:10;12.77;;;4.75;;
78410;SDS011;67706;51.074;-1.796;2023-08-07T06:02:41;11.82;;;5.03;;
78410;SDS011;67706;51.074;-1.796;2023-08-07T06:05:08;12.35;;;4.25;;
78410;SDS011;67706;51.074;-1.796;2023-08-07T06:07:37;11.50;;;4.85;;
78410;SDS011;67706;51.074;-1.796;2023-08-07T06:10:04;12.48;;;4.72;;
78410;SDS011;67706;51.074;-1.796;2023-08-07T06:12:33;10.43;;;4.55;;
78410;SDS011;67706;51.074;-1.796;2023-08-07T06:15:00;9.43;;;4.30;;
78410;SDS011;67706;51.074;-1.796;2023-08-07T06:17:27;9.73;;;4.22;;
78410;SDS011;67706;51.074;-1.796;2023-08-07T06:19:53;12.05;;;4.15;;
78410;SDS011;67706;51.074;-1.796;2023-08-07T06:22:20;9.35;;;3.80;;
78410;SDS011;67706;51.074;-1.796;2023-08-07T06:24:47;9.60;;;4.18;;
78410;SDS011;67706;51.074;-1.796;2023-08-07T06:27:14;9.23;;;4.25;;
78410;SDS011;67706;51.074;-1.796;2023-08-07T06:29:42;8.73;;;4.00;;
78410;SDS011;67706;51.074;-1.796;2023-08-07T06:32:08;8.77;;;4.43;;
78410;SDS011;67706;51.074;-1.796;2023-08-07T06:34:36;9.98;;;4.68;;
78410;SDS011;67706;51.074;-1.796;2023-08-07T06:37:03;8.75;;;4.93;;
78410;SDS011;67706;51.074;-1.796;2023-08-07T06:39:31;8.15;;;3.13;;
78410;SDS011;67706;51.074;-1.796;2023-08-07T06:41:57;6.38;;;3.60;;
78410;SDS011;67706;51.074;-1.796;2023-08-07T06:44:25;9.35;;;3.63;;
78410;SDS011;67706;51.074;-1.796;2023-08-07T06:46:53;6.28;;;3.20;;
78410;SDS011;67706;51.074;-1.796;2023-08-07T06:49:19;8.65;;;2.58;;
78410;SDS011;67706;51.074;-1.796;2023-08-07T06:51:46;6.95;;;3.70;;
78410;SDS011;67706;51.074;-1.796;2023-08-07T06:54:13;6.93;;;3.40;;
78410;SDS011;67706;51.074;-1.796;2023-08-07T06:56:40;8.88;;;3.67;;
78410;SDS011;67706;51.074;-1.796;2023-08-07T06:59:07;6.90;;;3.13;;
78410;SDS011;67706;51.074;-1.796;2023-08-07T07:01:34;8.32;;;3.40;;
78410;SDS011;67706;51.074;-1.796;2023-08-07T07:04:02;6.97;;;3.83;;
78410;SDS011;67706;51.074;-1.796;2023-08-07T07:06:29;8.20;;;2.88;;
78410;SDS011;67706;51.074;-1.796;2023-08-07T07:08:56;5.97;;;3.17;;
78410;SDS011;67706;51.074;-1.796;2023-08-07T07:11:23;5.70;;;2.97;;
78410;SDS011;67706;51.074;-1.796;2023-08-07T07:13:51;7.25;;;3.13;;
78410;SDS011;67706;51.074;-1.796;2023-08-07T07:16:19;6.65;;;2.50;;
78410;SDS011;67706;51.074;-1.796;2023-08-07T07:18:46;4.47;;;2.20;;
78410;SDS011;67706;51.074;-1.796;2023-08-07T07:21:15;5.80;;;2.28;;
78410;SDS011;67706;51.074;-1.796;2023-08-07T07:23:41;3.75;;;2.15;;
78410;SDS011;67706;51.074;-1.796;2023-08-07T07:26:08;4.90;;;2.40;;
78410;SDS011;67706;51.074;-1.796;2023-08-07T07:28:36;3.95;;;1.80;;
78410;SDS011;67706;51.074;-1.796;2023-08-07T07:31:03;5.82;;;2.63;;
78410;SDS011;67706;51.074;-1.796;2023-08-07T07:33:30;4.63;;;2.40;;
78410;SDS011;67706;51.074;-1.796;2023-08-07T07:35:57;5.28;;;2.03;;
78410;SDS011;67706;51.074;-1.796;2023-08-07T07:38:25;3.75;;;2.00;;
78410;SDS011;67706;51.074;-1.796;2023-08-07T07:40:53;4.07;;;2.25;;
78410;SDS011;67706;51.074;-1.796;2023-08-07T07:43:21;4.00;;;1.95;;
78410;SDS011;67706;51.074;-1.796;2023-08-07T07:45:48;5.18;;;2.13;;
78410;SDS011;67706;51.074;-1.796;2023-08-07T07:48:15;3.53;;;2.00;;
78410;SDS011;67706;51.074;-1.796;2023-08-07T07:50:42;5.53;;;2.28;;
78410;SDS011;67706;51.074;-1.796;2023-08-07T07:53:09;3.47;;;2.15;;
78410;SDS011;67706;51.074;-1.796;2023-08-07T07:55:37;3.70;;;1.88;;
78410;SDS011;67706;51.074;-1.796;2023-08-07T07:58:04;2.85;;;1.55;;
78410;SDS011;67706;51.074;-1.796;2023-08-07T08:00:31;3.00;;;1.63;;
78410;SDS011;67706;51.074;-1.796;2023-08-07T08:02:58;4.80;;;1.70;;
78410;SDS011;67706;51.074;-1.796;2023-08-07T08:05:25;3.30;;;1.63;;
78410;SDS011;67706;51.074;-1.796;2023-08-07T08:07:52;3.97;;;1.77;;
78410;SDS011;67706;51.074;-1.796;2023-08-07T08:10:20;4.90;;;2.30;;
78410;SDS011;67706;51.074;-1.796;2023-08-07T08:12:49;3.58;;;1.23;;
78410;SDS011;67706;51.074;-1.796;2023-08-07T08:15:16;2.95;;;1.52;;
78410;SDS011;67706;51.074;-1.796;2023-08-07T08:17:43;2.00;;;1.38;;
78410;SDS011;67706;51.074;-1.796;2023-08-07T08:20:10;2.38;;;1.25;;
78410;SDS011;67706;51.074;-1.796;2023-08-07T08:22:40;1.85;;;1.33;;
78410;SDS011;67706;51.074;-1.796;2023-08-07T08:25:07;2.60;;;1.50;;
78410;SDS011;67706;51.074;-1.796;2023-08-07T08:27:37;4.15;;;1.30;;
78410;SDS011;67706;51.074;-1.796;2023-08-07T08:30:06;3.65;;;1.58;;
78410;SDS011;67706;51.074;-1.796;2023-08-07T08:32:35;3.63;;;1.45;;
78410;SDS011;67706;51.074;-1.796;2023-08-07T08:35:01;2.50;;;1.30;;
78410;SDS011;67706;51.074;-1.796;2023-08-07T08:37:29;2.95;;;1.13;;
78410;SDS011;67706;51.074;-1.796;2023-08-07T08:39:55;2.97;;;1.30;;
78410;SDS011;67706;51.074;-1.796;2023-08-07T08:42:23;3.88;;;1.10;;
78410;SDS011;67706;51.074;-1.796;2023-08-07T08:44:51;2.58;;;1.20;;
78410;SDS011;67706;51.074;-1.796;2023-08-07T08:47:21;2.92;;;0.90;;
78410;SDS011;67706;51.074;-1.796;2023-08-07T08:49:49;2.25;;;0.50;;
78410;SDS011;67706;51.074;-1.796;2023-08-07T08:52:20;2.33;;;0.90;;
78410;SDS011;67706;51.074;-1.796;2023-08-07T08:54:47;1.98;;;0.70;;
78410;SDS011;67706;51.074;-1.796;2023-08-07T08:57:15;1.63;;;0.60;;
78410;SDS011;67706;51.074;-1.796;2023-08-07T08:59:42;1.98;;;0.85;;
78410;SDS011;67706;51.074;-1.796;2023-08-07T09:02:10;2.03;;;0.80;;
78410;SDS011;67706;51.074;-1.796;2023-08-07T09:04:39;0.82;;;0.50;;
78410;SDS011;67706;51.074;-1.796;2023-08-07T09:07:07;1.90;;;0.70;;
78410;SDS011;67706;51.074;-1.796;2023-08-07T09:09:35;1.58;;;0.68;;
78410;SDS011;67706;51.074;-1.796;2023-08-07T09:12:04;0.68;;;0.50;;
78410;SDS011;67706;51.074;-1.796;2023-08-07T09:14:32;0.50;;;0.30;;
78410;SDS011;67706;51.074;-1.796;2023-08-07T09:17:03;1.40;;;0.55;;
78410;SDS011;67706;51.074;-1.796;2023-08-07T09:19:31;0.90;;;0.60;;
78410;SDS011;67706;51.074;-1.796;2023-08-07T09:21:59;2.05;;;0.60;;
78410;SDS011;67706;51.074;-1.796;2023-08-07T09:24:26;1.88;;;0.80;;
78410;SDS011;67706;51.074;-1.796;2023-08-07T09:26:53;1.40;;;0.47;;
78410;SDS011;67706;51.074;-1.796;2023-08-07T09:29:23;0.95;;;0.63;;
78410;SDS011;67706;51.074;-1.796;2023-08-07T09:31:50;1.10;;;0.50;;
78410;SDS011;67706;51.074;-1.796;2023-08-07T09:34:31;1.13;;;0.55;;
78410;SDS011;67706;51.074;-1.796;2023-08-07T09:36:59;1.60;;;0.50;;
78410;SDS011;67706;51.074;-1.796;2023-08-07T09:39:29;2.03;;;0.60;;
78410;SDS011;67706;51.074;-1.796;2023-08-07T09:41:56;0.75;;;0.47;;
78410;SDS011;67706;51.074;-1.796;2023-08-07T09:44:23;0.82;;;0.30;;
78410;SDS011;67706;51.074;-1.796;2023-08-07T09:46:50;1.92;;;0.50;;
78410;SDS011;67706;51.074;-1.796;2023-08-07T09:49:17;1.73;;;0.40;;
78410;SDS011;67706;51.074;-1.796;2023-08-07T09:51:45;2.67;;;0.70;;
78410;SDS011;67706;51.074;-1.796;2023-08-07T09:54:16;1.00;;;0.50;;
78410;SDS011;67706;51.074;-1.796;2023-08-07T09:56:44;1.80;;;0.52;;
78410;SDS011;67706;51.074;-1.796;2023-08-07T09:59:13;1.55;;;0.63;;
78410;SDS011;67706;51.074;-1.796;2023-08-07T10:01:40;2.28;;;0.52;;
78410;SDS011;67706;51.074;-1.796;2023-08-07T10:04:09;2.00;;;0.60;;
78410;SDS011;67706;51.074;-1.796;2023-08-07T10:06:40;3.22;;;0.65;;
78410;SDS011;67706;51.074;-1.796;2023-08-07T10:09:08;1.52;;;0.55;;
78410;SDS011;67706;51.074;-1.796;2023-08-07T10:11:37;1.27;;;0.55;;
78410;SDS011;67706;51.074;-1.796;2023-08-07T10:14:05;1.35;;;0.80;;
78410;SDS011;67706;51.074;-1.796;2023-08-07T10:16:31;4.57;;;0.77;;
78410;SDS011;67706;51.074;-1.796;2023-08-07T10:19:04;1.48;;;0.60;;
78410;SDS011;67706;51.074;-1.796;2023-08-07T10:21:31;2.63;;;0.88;;
78410;SDS011;67706;51.074;-1.796;2023-08-07T10:23:59;2.72;;;0.73;;
78410;SDS011;67706;51.074;-1.796;2023-08-07T10:26:29;2.67;;;0.70;;
78410;SDS011;67706;51.074;-1.796;2023-08-07T10:28:59;2.65;;;0.73;;
78410;SDS011;67706;51.074;-1.796;2023-08-07T10:31:28;1.45;;;1.00;;
78410;SDS011;67706;51.074;-1.796;2023-08-07T10:33:56;1.13;;;0.50;;
78410;SDS011;67706;51.074;-1.796;2023-08-07T10:36:27;1.13;;;0.40;;
78410;SDS011;67706;51.074;-1.796;2023-08-07T10:39:05;1.45;;;0.57;;
78410;SDS011;67706;51.074;-1.796;2023-08-07T10:41:38;2.17;;;0.55;;
78410;SDS011;67706;51.074;-1.796;2023-08-07T10:44:13;3.53;;;0.50;;
78410;SDS011;67706;51.074;-1.796;2023-08-07T10:49:31;1.42;;;0.70;;
78410;SDS011;67706;51.074;-1.796;2023-08-07T10:51:59;0.70;;;0.55;;
78410;SDS011;67706;51.074;-1.796;2023-08-07T10:54:29;1.30;;;0.60;;
78410;SDS011;67706;51.074;-1.796;2023-08-07T10:56:56;1.88;;;0.80;;
78410;SDS011;67706;51.074;-1.796;2023-08-07T10:59:27;2.15;;;0.55;;
78410;SDS011;67706;51.074;-1.796;2023-08-07T11:01:56;1.30;;;0.70;;
78410;SDS011;67706;51.074;-1.796;2023-08-07T11:04:23;1.90;;;0.60;;
78410;SDS011;67706;51.074;-1.796;2023-08-07T11:06:51;1.10;;;0.55;;
78410;SDS011;67706;51.074;-1.796;2023-08-07T11:09:18;1.33;;;0.70;;
78410;SDS011;67706;51.074;-1.796;2023-08-07T11:11:46;3.40;;;0.70;;
78410;SDS011;67706;51.074;-1.796;2023-08-07T11:14:15;1.75;;;0.52;;
78410;SDS011;67706;51.074;-1.796;2023-08-07T11:16:45;1.63;;;0.60;;
78410;SDS011;67706;51.074;-1.796;2023-08-07T11:19:13;1.17;;;0.40;;
78410;SDS011;67706;51.074;-1.796;2023-08-07T11:21:42;0.60;;;0.40;;
78410;SDS011;67706;51.074;-1.796;2023-08-07T11:24:12;1.48;;;0.60;;
78410;SDS011;67706;51.074;-1.796;2023-08-07T11:26:42;2.83;;;0.50;;
78410;SDS011;67706;51.074;-1.796;2023-08-07T11:29:09;1.98;;;0.80;;
78410;SDS011;67706;51.074;-1.796;2023-08-07T11:31:36;1.55;;;0.43;;
78410;SDS011;67706;51.074;-1.796;2023-08-07T11:34:05;2.38;;;0.50;;
78410;SDS011;67706;51.074;-1.796;2023-08-07T11:36:32;1.20;;;0.50;;
78410;SDS011;67706;51.074;-1.796;2023-08-07T11:39:09;0.90;;;0.68;;
78410;SDS011;67706;51.074;-1.796;2023-08-07T11:41:37;2.03;;;0.70;;
78410;SDS011;67706;51.074;-1.796;2023-08-07T11:44:07;2.03;;;0.43;;
78410;SDS011;67706;51.074;-1.796;2023-08-07T11:46:35;1.42;;;0.57;;
78410;SDS011;67706;51.074;-1.796;2023-08-07T11:49:02;1.00;;;0.60;;
78410;SDS011;67706;51.074;-1.796;2023-08-07T11:51:32;3.15;;;0.70;;
78410;SDS011;67706;51.074;-1.796;2023-08-07T11:54:00;1.98;;;0.85;;
78410;SDS011;67706;51.074;-1.796;2023-08-07T11:56:27;2.63;;;0.60;;
78410;SDS011;67706;51.074;-1.796;2023-08-07T11:58:56;5.07;;;1.02;;
78410;SDS011;67706;51.074;-1.796;2023-08-07T12:01:25;2.72;;;0.60;;
78410;SDS011;67706;51.074;-1.796;2023-08-07T12:03:55;1.40;;;0.80;;
78410;SDS011;67706;51.074;-1.796;2023-08-07T12:06:24;2.03;;;0.60;;
78410;SDS011;67706;51.074;-1.796;2023-08-07T12:08:53;3.90;;;0.88;;
78410;SDS011;67706;51.074;-1.796;2023-08-07T12:11:21;3.72;;;0.80;;
78410;SDS011;67706;51.074;-1.796;2023-08-07T12:13:48;1.60;;;0.82;;
78410;SDS011;67706;51.074;-1.796;2023-08-07T12:16:16;4.63;;;2.55;;
78410;SDS011;67706;51.074;-1.796;2023-08-07T12:18:43;2.97;;;0.82;;
78410;SDS011;67706;51.074;-1.796;2023-08-07T12:21:13;1.65;;;0.80;;
78410;SDS011;67706;51.074;-1.796;2023-08-07T12:23:43;3.33;;;1.00;;
78410;SDS011;67706;51.074;-1.796;2023-08-07T12:28:39;1.20;;;0.75;;
78410;SDS011;67706;51.074;-1.796;2023-08-07T12:31:06;1.15;;;0.80;;
78410;SDS011;67706;51.074;-1.796;2023-08-07T12:33:33;2.42;;;0.80;;
78410;SDS011;67706;51.074;-1.796;2023-08-07T12:36:00;1.80;;;0.90;;
78410;SDS011;67706;51.074;-1.796;2023-08-07T12:38:27;2.10;;;0.85;;
78410;SDS011;67706;51.074;-1.796;2023-08-07T12:40:56;1.70;;;1.00;;
78410;SDS011;67706;51.074;-1.796;2023-08-07T12:43:23;2.80;;;0.77;;
78410;SDS011;67706;51.074;-1.796;2023-08-07T12:45:49;1.90;;;0.90;;
78410;SDS011;67706;51.074;-1.796;2023-08-07T12:48:17;2.25;;;1.00;;
78410;SDS011;67706;51.074;-1.796;2023-08-07T12:50:44;4.65;;;1.08;;
78410;SDS011;67706;51.074;-1.796;2023-08-07T12:53:11;2.28;;;1.00;;
78410;SDS011;67706;51.074;-1.796;2023-08-07T12:55:38;3.47;;;0.93;;
78410;SDS011;67706;51.074;-1.796;2023-08-07T12:58:06;0.90;;;0.70;;
78410;SDS011;67706;51.074;-1.796;2023-08-07T13:00:32;2.20;;;1.10;;
78410;SDS011;67706;51.074;-1.796;2023-08-07T13:02:59;2.00;;;0.98;;
78410;SDS011;67706;51.074;-1.796;2023-08-07T13:05:27;3.25;;;0.63;;
78410;SDS011;67706;51.074;-1.796;2023-08-07T13:07:55;2.85;;;1.20;;
78410;SDS011;67706;51.074;-1.796;2023-08-07T13:10:23;2.45;;;0.90;;
78410;SDS011;67706;51.074;-1.796;2023-08-07T13:12:53;1.88;;;0.80;;
78410;SDS011;67706;51.074;-1.796;2023-08-07T13:15:21;2.40;;;1.00;;
78410;SDS011;67706;51.074;-1.796;2023-08-07T13:17:47;1.95;;;0.73;;
78410;SDS011;67706;51.074;-1.796;2023-08-07T13:20:14;3.03;;;0.85;;
78410;SDS011;67706;51.074;-1.796;2023-08-07T13:22:41;1.92;;;0.70;;
78410;SDS011;67706;51.074;-1.796;2023-08-07T13:25:10;6.53;;;1.10;;
78410;SDS011;67706;51.074;-1.796;2023-08-07T13:27:38;2.45;;;0.73;;
78410;SDS011;67706;51.074;-1.796;2023-08-07T13:30:06;2.45;;;0.80;;
78410;SDS011;67706;51.074;-1.796;2023-08-07T13:32:35;3.72;;;1.05;;
78410;SDS011;67706;51.074;-1.796;2023-08-07T13:35:02;4.35;;;1.02;;
78410;SDS011;67706;51.074;-1.796;2023-08-07T13:37:29;7.38;;;1.92;;
78410;SDS011;67706;51.074;-1.796;2023-08-07T13:39:57;3.53;;;1.20;;
78410;SDS011;67706;51.074;-1.796;2023-08-07T13:42:24;4.30;;;1.70;;
78410;SDS011;67706;51.074;-1.796;2023-08-07T13:44:52;1.58;;;0.70;;
78410;SDS011;67706;51.074;-1.796;2023-08-07T13:47:19;1.65;;;0.80;;
78410;SDS011;67706;51.074;-1.796;2023-08-07T13:49:47;2.50;;;0.75;;
78410;SDS011;67706;51.074;-1.796;2023-08-07T13:52:14;2.50;;;0.80;;
78410;SDS011;67706;51.074;-1.796;2023-08-07T13:54:41;1.23;;;0.80;;
78410;SDS011;67706;51.074;-1.796;2023-08-07T13:57:08;1.70;;;0.80;;
78410;SDS011;67706;51.074;-1.796;2023-08-07T13:59:34;1.58;;;0.68;;
78410;SDS011;67706;51.074;-1.796;2023-08-07T14:02:01;2.05;;;0.63;;
78410;SDS011;67706;51.074;-1.796;2023-08-07T14:04:28;2.65;;;0.60;;
78410;SDS011;67706;51.074;-1.796;2023-08-07T14:06:56;3.00;;;0.70;;
78410;SDS011;67706;51.074;-1.796;2023-08-07T14:09:23;1.75;;;0.60;;
78410;SDS011;67706;51.074;-1.796;2023-08-07T14:11:51;2.60;;;0.93;;
78410;SDS011;67706;51.074;-1.796;2023-08-07T14:14:18;2.45;;;1.05;;
78410;SDS011;67706;51.074;-1.796;2023-08-07T14:16:44;4.60;;;0.90;;
78410;SDS011;67706;51.074;-1.796;2023-08-07T14:19:11;4.10;;;1.13;;
78410;SDS011;67706;51.074;-1.796;2023-08-07T14:21:38;6.47;;;1.17;;
78410;SDS011;67706;51.074;-1.796;2023-08-07T14:24:06;2.85;;;0.70;;
78410;SDS011;67706;51.074;-1.796;2023-08-07T14:26:33;5.05;;;0.80;;
78410;SDS011;67706;51.074;-1.796;2023-08-07T14:28:59;3.17;;;0.90;;
78410;SDS011;67706;51.074;-1.796;2023-08-07T14:31:26;3.35;;;1.10;;
78410;SDS011;67706;51.074;-1.796;2023-08-07T14:33:53;2.25;;;0.90;;
78410;SDS011;67706;51.074;-1.796;2023-08-07T14:36:19;3.75;;;1.00;;
78410;SDS011;67706;51.074;-1.796;2023-08-07T14:38:46;4.60;;;1.02;;
78410;SDS011;67706;51.074;-1.796;2023-08-07T14:41:14;1.75;;;0.80;;